createdAt,value
2022-11-29T00:08:17.768Z,7.5
2022-11-29T00:18:19.695Z,7.5
2022-11-29T00:38:24.082Z,7.4
2022-11-29T00:48:26.468Z,7.4
2022-11-29T00:58:28.915Z,7.4
2022-11-29T01:08:31.007Z,7.3
2022-11-29T01:18:33.029Z,7.3
2022-11-29T01:28:34.879Z,7.3
2022-11-29T01:38:36.875Z,7.3
2022-11-29T01:48:38.774Z,7.4
2022-11-29T01:58:41.116Z,7.3
2022-11-29T02:08:43.728Z,7.4
2022-11-29T02:18:45.814Z,7.4
2022-11-29T02:28:47.986Z,7.4
2022-11-29T02:38:50.039Z,7.5
2022-11-29T02:48:51.861Z,7.5
2022-11-29T02:58:54.423Z,7.4
2022-11-29T03:08:56.552Z,7.4
2022-11-29T03:18:58.440Z,7.4
2022-11-29T03:29:00.195Z,7.3
2022-11-29T03:39:02.821Z,7.3
2022-11-29T03:49:04.728Z,7.3
2022-11-29T04:09:08.883Z,7.3
2022-11-29T04:19:11.385Z,7.3
2022-11-29T04:29:13.440Z,7.3
2022-11-29T04:39:15.505Z,7.3
2022-11-29T04:59:20.503Z,7.1
2022-11-29T05:09:22.391Z,7
2022-11-29T05:19:24.195Z,7
2022-11-29T05:29:26.153Z,6.9
2022-11-29T05:39:28.034Z,6.7
2022-11-29T05:49:30.525Z,6.7
2022-11-29T05:59:32.878Z,6.8
2022-11-29T06:09:35.224Z,6.9
2022-11-29T06:19:37.012Z,6.9
2022-11-29T06:29:38.682Z,6.9
2022-11-29T06:39:41.060Z,6.8
2022-11-29T06:49:43.355Z,6.8
2022-11-29T06:59:45.917Z,6.8
2022-11-29T07:19:50.003Z,6.9
2022-11-29T07:29:52.279Z,6.9
2022-11-29T07:39:54.930Z,6.9
2022-11-29T07:49:57.031Z,7
2022-11-29T08:10:01.579Z,7.1
2022-11-29T08:20:04.387Z,7.1
2022-11-29T08:30:06.625Z,7.1
2022-11-29T08:40:09.193Z,7.1
2022-11-29T08:50:10.931Z,7.3
2022-11-29T09:00:13.536Z,7.4
2022-11-29T09:10:15.491Z,7.5
2022-11-29T09:20:17.521Z,7.5
2022-11-29T09:30:23.607Z,7.6
2022-11-29T09:40:22.057Z,7.8
2022-11-29T09:50:23.668Z,7.7
2022-11-29T10:00:26.283Z,7.8
2022-11-29T10:10:28.144Z,8
2022-11-29T10:20:30.174Z,7.8
2022-11-29T10:30:32.177Z,8
2022-11-29T10:40:34.252Z,8.1
2022-11-29T11:00:39.162Z,8
2022-11-29T11:10:41.675Z,8
2022-11-29T11:20:43.918Z,7.7
2022-11-29T11:30:45.873Z,7.7
2022-11-29T11:40:48.710Z,8
2022-11-29T11:50:50.331Z,8
2022-11-29T12:01:03.795Z,7.9
2022-11-29T12:10:54.643Z,8
2022-11-29T12:20:56.844Z,7.9
2022-11-29T12:30:59.298Z,7.7
2022-11-29T12:41:01.607Z,7.7
2022-11-29T12:51:03.658Z,7.6
2022-11-29T13:01:06.192Z,7.8
2022-11-29T13:11:08.069Z,7.8
2022-11-29T13:21:09.917Z,7.8
2022-11-29T13:31:11.969Z,7.8
2022-11-29T13:51:16.220Z,7.9
2022-11-29T14:01:18.849Z,8
2022-11-29T14:11:20.595Z,8.1
2022-11-29T14:21:22.718Z,8
2022-11-29T14:31:24.724Z,8.1
2022-11-29T14:41:26.473Z,8.1
2022-11-29T14:51:28.788Z,8.1
2022-11-29T15:01:30.954Z,8.1
2022-11-29T15:11:33.144Z,8
2022-11-29T15:31:37.679Z,7.9
2022-11-29T15:41:39.449Z,7.9
2022-11-29T15:51:41.557Z,7.8
2022-11-29T16:01:43.616Z,7.8
2022-11-29T16:11:45.345Z,7.8
2022-11-29T16:31:49.269Z,7.7
2022-11-29T16:41:59.134Z,7.7
2022-11-29T16:52:01.771Z,7.6
2022-11-29T17:12:06.269Z,7.6
2022-11-29T17:32:10.934Z,7.5
2022-11-29T17:42:12.658Z,7.5
2022-11-29T17:52:14.328Z,7.4
2022-11-29T18:02:16.849Z,7.4
2022-11-29T18:12:18.795Z,7.4
2022-11-29T18:22:21.029Z,7.4
2022-11-29T18:32:23.318Z,7.3
2022-11-29T18:42:25.580Z,7.3
2022-11-29T18:52:27.295Z,7.3
2022-11-29T19:32:35.507Z,7.1
2022-11-29T19:42:37.898Z,7.1
2022-11-29T19:52:40.498Z,7
2022-11-29T20:02:42.464Z,7
2022-11-29T20:12:44.800Z,6.9
2022-11-29T20:22:47.072Z,6.9
2022-11-29T20:32:49.362Z,6.9
2022-11-29T20:42:51.188Z,6.9
2022-11-29T21:12:58.186Z,6.9
2022-11-29T21:23:00.212Z,6.9
2022-11-29T21:33:02.540Z,6.9
2022-11-29T21:43:04.370Z,6.9
2022-11-29T21:53:06.391Z,6.9
2022-11-29T22:03:08.391Z,6.8
2022-11-29T22:13:10.075Z,6.8
2022-11-29T22:23:12.357Z,6.8
2022-11-29T22:33:14.660Z,6.8
2022-11-29T22:43:16.649Z,6.8
2022-11-29T22:53:19.062Z,6.9
2022-11-29T23:13:23.260Z,6.9
2022-11-29T23:23:24.997Z,6.9
2022-11-29T23:33:27.060Z,6.9
2022-11-29T23:43:29.288Z,6.9
2022-11-29T23:53:31.750Z,6.9
